createdAt,value
2023-04-06T00:01:16.952Z,64
2023-04-06T00:04:16.958Z,64
2023-04-06T00:07:17.005Z,64
2023-04-06T00:10:16.967Z,64
2023-04-06T00:13:16.968Z,64
2023-04-06T00:16:16.970Z,64
2023-04-06T00:19:16.958Z,64
2023-04-06T00:22:16.948Z,64
2023-04-06T00:25:16.955Z,65
2023-04-06T00:28:16.970Z,65
2023-04-06T00:31:16.952Z,65
2023-04-06T00:34:16.965Z,65
2023-04-06T00:37:16.955Z,65
2023-04-06T00:40:16.957Z,65
2023-04-06T00:46:16.991Z,65
2023-04-06T00:49:16.945Z,65
2023-04-06T00:52:16.954Z,65
2023-04-06T00:55:16.963Z,65
2023-04-06T00:58:16.952Z,65
2023-04-06T01:01:16.963Z,65
2023-04-06T01:04:16.964Z,65
2023-04-06T01:07:16.952Z,66
2023-04-06T01:10:16.964Z,66
2023-04-06T01:13:16.977Z,66
2023-04-06T01:16:16.967Z,66
2023-04-06T01:19:16.953Z,66
2023-04-06T01:22:16.951Z,66
2023-04-06T01:25:16.948Z,66
2023-04-06T01:28:16.979Z,66
2023-04-06T01:31:17.012Z,66
2023-04-06T01:34:16.961Z,66
2023-04-06T01:37:16.959Z,66
2023-04-06T01:40:16.968Z,67
2023-04-06T01:43:16.975Z,67
2023-04-06T01:46:17.005Z,67
2023-04-06T01:49:16.959Z,67
2023-04-06T01:52:16.959Z,67
2023-04-06T01:55:16.949Z,67
2023-04-06T01:58:16.954Z,67
2023-04-06T02:01:16.980Z,67
2023-04-06T02:04:16.974Z,67
2023-04-06T02:07:16.941Z,67
2023-04-06T02:10:16.943Z,67
2023-04-06T02:13:16.946Z,67
2023-04-06T02:16:17.001Z,67
2023-04-06T02:19:16.938Z,68
2023-04-06T02:22:16.952Z,68
2023-04-06T02:25:16.954Z,67
2023-04-06T02:28:16.940Z,67
2023-04-06T02:31:16.949Z,67
2023-04-06T02:34:16.952Z,68
2023-04-06T02:37:16.953Z,67
2023-04-06T02:40:16.960Z,67
2023-04-06T02:43:16.955Z,68
2023-04-06T02:46:17.003Z,68
2023-04-06T02:49:16.952Z,68
2023-04-06T02:52:16.942Z,68
2023-04-06T02:55:16.951Z,68
2023-04-06T02:58:16.966Z,68
2023-04-06T03:01:16.972Z,68
2023-04-06T03:04:16.937Z,68
2023-04-06T03:07:16.935Z,68
2023-04-06T03:10:16.951Z,68
2023-04-06T03:13:16.926Z,69
2023-04-06T03:16:16.959Z,69
2023-04-06T03:19:16.965Z,69
2023-04-06T03:22:16.930Z,69
2023-04-06T03:25:16.958Z,69
2023-04-06T03:28:16.939Z,69
2023-04-06T03:34:16.923Z,69
2023-04-06T03:40:16.927Z,69
2023-04-06T03:43:16.918Z,69
2023-04-06T03:46:16.949Z,69
2023-04-06T03:49:16.926Z,69
2023-04-06T03:52:16.912Z,69
2023-04-06T03:55:16.938Z,69
2023-04-06T03:58:16.908Z,70
2023-04-06T04:01:16.926Z,70
2023-04-06T04:04:16.906Z,70
2023-04-06T04:07:16.931Z,70
2023-04-06T04:10:16.918Z,70
2023-04-06T04:13:16.908Z,70
2023-04-06T04:16:16.918Z,70
2023-04-06T04:22:16.913Z,70
2023-04-06T04:25:16.910Z,70
2023-04-06T04:28:16.911Z,71
2023-04-06T04:31:16.929Z,71
2023-04-06T04:37:16.910Z,71
2023-04-06T04:40:16.901Z,71
2023-04-06T04:43:16.913Z,71
2023-04-06T04:46:16.977Z,71
2023-04-06T04:49:16.916Z,71
2023-04-06T04:52:16.898Z,71
2023-04-06T04:55:16.909Z,71
2023-04-06T04:58:16.907Z,71
2023-04-06T05:01:16.936Z,71
2023-04-06T05:04:16.941Z,72
2023-04-06T05:07:16.908Z,72
2023-04-06T05:10:16.896Z,72
2023-04-06T05:13:16.921Z,72
2023-04-06T05:16:16.972Z,72
2023-04-06T05:19:16.898Z,72
2023-04-06T05:22:16.902Z,72
2023-04-06T05:25:16.903Z,72
2023-04-06T05:28:16.913Z,72
2023-04-06T05:31:16.912Z,72
2023-04-06T05:34:16.906Z,72
2023-04-06T05:37:16.898Z,72
2023-04-06T05:40:16.890Z,72
2023-04-06T05:43:16.885Z,72
2023-04-06T05:46:16.901Z,72
2023-04-06T05:49:16.878Z,72
2023-04-06T05:52:16.894Z,72
2023-04-06T05:55:16.878Z,72
2023-04-06T05:58:16.880Z,72
2023-04-06T06:01:16.879Z,72
2023-04-06T06:04:16.878Z,72
2023-04-06T06:07:16.899Z,73
2023-04-06T06:10:16.896Z,73
2023-04-06T06:13:16.879Z,73
2023-04-06T06:16:16.892Z,73
2023-04-06T06:19:16.887Z,73
2023-04-06T06:22:16.896Z,73
2023-04-06T06:25:16.869Z,73
2023-04-06T06:28:16.888Z,73
2023-04-06T06:31:16.897Z,73
2023-04-06T06:34:16.888Z,73
2023-04-06T06:37:16.938Z,73
2023-04-06T06:40:16.907Z,73
2023-04-06T06:43:16.882Z,73
2023-04-06T06:46:16.913Z,73
2023-04-06T06:49:16.875Z,72
2023-04-06T06:52:16.878Z,72
2023-04-06T06:55:16.919Z,72
2023-04-06T06:58:16.874Z,72
2023-04-06T07:01:16.901Z,72
2023-04-06T07:04:16.892Z,72
2023-04-06T07:07:16.859Z,72
2023-04-06T07:10:16.878Z,72
2023-04-06T07:13:16.893Z,72
2023-04-06T07:16:16.881Z,72
2023-04-06T07:19:16.872Z,72
2023-04-06T07:22:16.861Z,72
2023-04-06T07:25:16.871Z,72
2023-04-06T07:28:16.849Z,72
2023-04-06T07:31:16.849Z,72
2023-04-06T07:34:16.846Z,72
2023-04-06T07:37:16.850Z,72
2023-04-06T07:40:16.871Z,72
2023-04-06T07:43:16.849Z,71
2023-04-06T07:46:16.862Z,71
2023-04-06T07:49:16.849Z,71
2023-04-06T07:52:16.860Z,71
2023-04-06T07:55:16.850Z,71
2023-04-06T07:58:16.840Z,71
2023-04-06T08:01:16.830Z,70
2023-04-06T08:04:16.910Z,70
2023-04-06T08:07:16.842Z,70
2023-04-06T08:10:16.854Z,70
2023-04-06T08:16:16.907Z,70
2023-04-06T08:19:16.837Z,70
2023-04-06T08:22:16.849Z,69
2023-04-06T08:25:16.841Z,69
2023-04-06T08:28:16.825Z,69
2023-04-06T08:31:16.873Z,69
2023-04-06T08:34:16.905Z,69
2023-04-06T08:37:16.861Z,68
2023-04-06T08:40:16.847Z,68
2023-04-06T08:43:16.809Z,68
2023-04-06T08:46:16.862Z,68
2023-04-06T08:49:16.830Z,68
2023-04-06T08:52:16.821Z,67
2023-04-06T08:55:16.853Z,67
2023-04-06T08:58:24.468Z,67
2023-04-06T09:01:16.848Z,67
2023-04-06T09:04:17.263Z,67
2023-04-06T09:07:16.818Z,67
2023-04-06T09:10:16.810Z,67
2023-04-06T09:13:16.819Z,67
2023-04-06T09:16:16.893Z,66
2023-04-06T09:19:16.807Z,66
2023-04-06T09:22:16.834Z,66
2023-04-06T09:25:16.820Z,66
2023-04-06T09:28:16.808Z,66
2023-04-06T09:31:16.875Z,66
2023-04-06T09:34:16.819Z,65
2023-04-06T09:37:16.824Z,65
2023-04-06T09:40:16.837Z,65
2023-04-06T09:43:16.881Z,65
2023-04-06T09:46:16.841Z,64
2023-04-06T09:49:17.037Z,64
2023-04-06T09:52:16.911Z,64
2023-04-06T09:55:16.901Z,64
2023-04-06T09:58:16.897Z,64
2023-04-06T10:01:16.916Z,64
2023-04-06T10:04:16.949Z,63
2023-04-06T10:07:16.892Z,63
2023-04-06T10:10:16.890Z,63
2023-04-06T10:13:16.899Z,63
2023-04-06T10:16:16.896Z,63
2023-04-06T10:19:16.878Z,62
2023-04-06T10:22:16.877Z,62
2023-04-06T10:25:16.876Z,62
2023-04-06T10:28:16.905Z,62
2023-04-06T10:31:16.920Z,62
2023-04-06T10:34:16.904Z,62
2023-04-06T10:37:16.869Z,61
2023-04-06T10:40:17.051Z,61
2023-04-06T10:43:16.903Z,61
2023-04-06T10:46:16.937Z,61
2023-04-06T10:52:16.876Z,60
2023-04-06T10:55:16.904Z,60
2023-04-06T10:58:16.915Z,60
2023-04-06T11:01:16.921Z,60
2023-04-06T11:04:16.889Z,59
2023-04-06T11:07:16.889Z,59
2023-04-06T11:10:19.392Z,59
2023-04-06T11:13:16.926Z,59
2023-04-06T11:16:16.927Z,59
2023-04-06T11:19:16.884Z,58
2023-04-06T11:22:16.877Z,58
2023-04-06T11:25:16.892Z,58
2023-04-06T11:28:16.881Z,57
2023-04-06T11:31:16.923Z,57
2023-04-06T11:34:16.877Z,57
2023-04-06T11:37:16.900Z,57
2023-04-06T11:40:16.886Z,57
2023-04-06T11:43:16.880Z,57
2023-04-06T11:46:16.891Z,57
2023-04-06T11:49:16.954Z,57
2023-04-06T11:52:16.875Z,56
2023-04-06T11:55:16.887Z,56
2023-04-06T11:58:16.896Z,56
2023-04-06T12:01:16.881Z,56
2023-04-06T12:04:16.910Z,56
2023-04-06T12:07:16.902Z,56
2023-04-06T12:10:16.873Z,56
2023-04-06T12:13:16.870Z,55
2023-04-06T12:16:16.885Z,55
2023-04-06T12:19:16.867Z,55
2023-04-06T12:22:16.868Z,54
2023-04-06T12:25:16.863Z,54
2023-04-06T12:28:16.876Z,54
2023-04-06T12:31:16.969Z,54
2023-04-06T12:34:16.867Z,54
2023-04-06T12:37:16.867Z,53
2023-04-06T12:40:16.872Z,53
2023-04-06T12:43:16.870Z,53
2023-04-06T12:46:16.945Z,53
2023-04-06T12:49:16.875Z,53
2023-04-06T12:52:16.871Z,51
2023-04-06T12:55:16.890Z,51
2023-04-06T12:58:16.877Z,52
2023-04-06T13:01:16.937Z,52
2023-04-06T13:04:16.869Z,51
2023-04-06T13:07:17.883Z,51
2023-04-06T13:10:16.874Z,51
2023-04-06T13:13:16.877Z,51
2023-04-06T13:16:16.894Z,51
2023-04-06T13:19:16.863Z,51
2023-04-06T13:22:16.871Z,51
2023-04-06T13:25:16.871Z,51
2023-04-06T13:28:16.861Z,51
2023-04-06T13:31:16.880Z,51
2023-04-06T13:34:16.979Z,50
2023-04-06T13:37:17.086Z,50
2023-04-06T13:40:16.863Z,51
2023-04-06T13:43:16.866Z,50
2023-04-06T13:46:16.875Z,51
2023-04-06T13:49:16.854Z,51
2023-04-06T13:52:16.861Z,50
2023-04-06T13:55:16.868Z,50
2023-04-06T13:58:16.909Z,50
2023-04-06T14:01:17.079Z,50
2023-04-06T14:04:16.876Z,50
2023-04-06T14:07:16.853Z,50
2023-04-06T14:10:16.853Z,50
2023-04-06T14:13:16.848Z,50
2023-04-06T14:16:16.885Z,50
2023-04-06T14:19:16.859Z,49
2023-04-06T14:22:16.842Z,49
2023-04-06T14:25:16.842Z,49
2023-04-06T14:28:16.846Z,49
2023-04-06T14:31:16.990Z,49
2023-04-06T14:34:16.843Z,49
2023-04-06T14:37:16.847Z,49
2023-04-06T14:40:16.856Z,49
2023-04-06T14:43:16.843Z,49
2023-04-06T14:46:16.942Z,49
2023-04-06T14:49:16.841Z,49
2023-04-06T14:52:16.843Z,49
2023-04-06T14:55:16.851Z,49
2023-04-06T14:58:16.830Z,49
2023-04-06T15:01:16.918Z,49
2023-04-06T15:04:16.946Z,49
2023-04-06T15:07:16.821Z,49
2023-04-06T15:10:16.831Z,49
2023-04-06T15:13:16.821Z,49
2023-04-06T15:16:16.846Z,48
2023-04-06T15:19:16.821Z,48
2023-04-06T15:22:16.826Z,48
2023-04-06T15:25:16.812Z,48
2023-04-06T15:28:16.831Z,48
2023-04-06T15:31:24.398Z,48
2023-04-06T15:34:16.806Z,48
2023-04-06T15:37:16.820Z,48
2023-04-06T15:40:16.819Z,48
2023-04-06T15:43:16.818Z,48
2023-04-06T15:46:16.826Z,48
2023-04-06T15:49:16.822Z,48
2023-04-06T15:52:16.804Z,48
2023-04-06T15:55:16.945Z,48
2023-04-06T15:58:16.821Z,48
2023-04-06T16:01:16.801Z,48
2023-04-06T16:04:16.854Z,48
2023-04-06T16:07:16.818Z,48
2023-04-06T16:10:16.789Z,48
2023-04-06T16:13:16.816Z,48
2023-04-06T16:16:16.835Z,48
2023-04-06T16:19:16.806Z,48
2023-04-06T16:22:16.794Z,48
2023-04-06T16:25:16.809Z,48
2023-04-06T16:28:17.049Z,48
2023-04-06T16:31:16.981Z,48
2023-04-06T16:34:16.794Z,48
2023-04-06T16:37:16.791Z,48
2023-04-06T16:40:16.808Z,48
2023-04-06T16:43:16.805Z,48
2023-04-06T16:46:16.837Z,48
2023-04-06T16:49:16.795Z,48
2023-04-06T16:52:16.787Z,48
2023-04-06T16:55:16.815Z,48
2023-04-06T16:58:16.780Z,48
2023-04-06T17:01:16.826Z,48
2023-04-06T17:04:16.818Z,48
2023-04-06T17:07:16.805Z,49
2023-04-06T17:10:17.008Z,49
2023-04-06T17:13:16.787Z,49
2023-04-06T17:16:16.819Z,49
2023-04-06T17:19:16.785Z,49
2023-04-06T17:22:16.778Z,49
2023-04-06T17:25:16.777Z,49
2023-04-06T17:28:16.772Z,49
2023-04-06T17:31:16.810Z,49
2023-04-06T17:34:16.779Z,49
2023-04-06T17:37:16.766Z,49
2023-04-06T17:40:16.773Z,49
2023-04-06T17:43:16.773Z,49
2023-04-06T17:46:16.814Z,49
2023-04-06T17:49:16.764Z,49
2023-04-06T17:52:16.762Z,50
2023-04-06T17:55:16.770Z,50
2023-04-06T17:58:16.763Z,50
2023-04-06T18:01:16.768Z,50
2023-04-06T18:04:16.812Z,50
2023-04-06T18:07:16.769Z,50
2023-04-06T18:10:16.761Z,50
2023-04-06T18:13:16.751Z,50
2023-04-06T18:16:16.780Z,50
2023-04-06T18:19:16.753Z,51
2023-04-06T18:22:16.756Z,51
2023-04-06T18:25:16.750Z,51
2023-04-06T18:28:16.751Z,51
2023-04-06T18:31:16.818Z,51
2023-04-06T18:34:16.751Z,52
2023-04-06T18:37:16.793Z,52
2023-04-06T18:40:16.758Z,52
2023-04-06T18:43:16.754Z,52
2023-04-06T18:46:16.747Z,52
2023-04-06T18:49:16.740Z,53
2023-04-06T18:52:16.757Z,53
2023-04-06T18:55:16.753Z,53
2023-04-06T18:58:16.740Z,53
2023-04-06T19:01:16.750Z,54
2023-04-06T19:04:16.893Z,54
2023-04-06T19:07:16.764Z,55
2023-04-06T19:10:16.788Z,55
2023-04-06T19:16:16.837Z,56
2023-04-06T19:19:16.744Z,56
2023-04-06T19:22:16.742Z,57
2023-04-06T19:25:16.774Z,57
2023-04-06T19:28:16.737Z,57
2023-04-06T19:31:16.733Z,58
2023-04-06T19:34:16.737Z,58
2023-04-06T19:37:16.724Z,59
2023-04-06T19:40:16.729Z,59
2023-04-06T19:43:16.737Z,59
2023-04-06T19:46:16.745Z,60
2023-04-06T19:49:16.746Z,60
2023-04-06T19:52:16.743Z,61
2023-04-06T19:55:16.727Z,61
2023-04-06T19:58:16.731Z,61
2023-04-06T20:01:16.752Z,61
2023-04-06T20:04:16.770Z,62
2023-04-06T20:07:16.736Z,62
2023-04-06T20:10:16.724Z,62
2023-04-06T20:13:16.727Z,63
2023-04-06T20:16:16.822Z,63
2023-04-06T20:19:16.729Z,63
2023-04-06T20:22:16.751Z,63
2023-04-06T20:25:16.732Z,63
2023-04-06T20:28:16.832Z,64
2023-04-06T20:34:16.938Z,64
2023-04-06T20:37:16.760Z,64
2023-04-06T20:40:16.765Z,65
2023-04-06T20:43:16.795Z,65
2023-04-06T20:46:16.739Z,65
2023-04-06T20:49:16.723Z,65
2023-04-06T20:52:16.725Z,66
2023-04-06T20:55:16.725Z,66
2023-04-06T20:58:16.711Z,66
2023-04-06T21:01:16.770Z,66
2023-04-06T21:04:16.960Z,67
2023-04-06T21:07:16.715Z,67
2023-04-06T21:10:16.715Z,67
2023-04-06T21:13:16.692Z,67
2023-04-06T21:16:16.767Z,67
2023-04-06T21:19:16.714Z,67
2023-04-06T21:22:16.707Z,68
2023-04-06T21:25:16.709Z,68
2023-04-06T21:28:16.706Z,68
2023-04-06T21:31:16.744Z,68
2023-04-06T21:34:16.993Z,68
2023-04-06T21:37:17.764Z,68
2023-04-06T21:40:16.704Z,69
2023-04-06T21:43:16.703Z,69
2023-04-06T21:46:16.703Z,69
2023-04-06T21:49:16.690Z,69
2023-04-06T21:52:16.692Z,69
2023-04-06T21:55:16.695Z,69
2023-04-06T21:58:16.677Z,70
2023-04-06T22:01:16.671Z,70
2023-04-06T22:04:17.051Z,70
2023-04-06T22:07:16.683Z,70
2023-04-06T22:10:16.695Z,70
2023-04-06T22:13:16.674Z,70
2023-04-06T22:16:16.705Z,70
2023-04-06T22:19:16.680Z,70
2023-04-06T22:22:16.682Z,71
2023-04-06T22:25:16.679Z,71
2023-04-06T22:31:16.682Z,71
2023-04-06T22:34:16.914Z,71
2023-04-06T22:37:16.676Z,71
2023-04-06T22:40:16.674Z,71
2023-04-06T22:43:16.674Z,71
2023-04-06T22:46:16.665Z,71
2023-04-06T22:49:16.677Z,71
2023-04-06T22:52:16.696Z,72
2023-04-06T22:55:16.661Z,72
2023-04-06T22:58:16.666Z,72
2023-04-06T23:01:16.705Z,72
2023-04-06T23:04:16.980Z,72
2023-04-06T23:07:16.656Z,72
2023-04-06T23:10:16.663Z,72
2023-04-06T23:13:16.664Z,72
2023-04-06T23:16:16.680Z,72
2023-04-06T23:19:16.662Z,72
2023-04-06T23:22:16.653Z,72
2023-04-06T23:25:16.662Z,73
2023-04-06T23:28:16.657Z,73
2023-04-06T23:31:16.649Z,73
2023-04-06T23:34:16.687Z,73
2023-04-06T23:37:16.680Z,73
2023-04-06T23:40:16.651Z,73
2023-04-06T23:43:16.644Z,73
2023-04-06T23:46:16.701Z,73
2023-04-06T23:49:16.639Z,73
2023-04-06T23:52:16.639Z,73
2023-04-06T23:55:16.646Z,73
2023-04-06T23:58:16.654Z,73
